createdAt,value
2022-12-25T00:00:21.429Z,95921.84
2022-12-25T00:01:25.655Z,95917.94
2022-12-25T00:02:29.700Z,95911.72
2022-12-25T00:03:31.974Z,95904.75
2022-12-25T00:04:35.008Z,95901.22
2022-12-25T00:05:38.916Z,95910.97
2022-12-25T00:06:41.715Z,95902.41
2022-12-25T00:07:43.830Z,95905.13
2022-12-25T00:08:46.803Z,95901.66
2022-12-25T00:09:48.768Z,95895.41
2022-12-25T00:10:58.485Z,95889.19
2022-12-25T00:12:02.798Z,95892.69
2022-12-25T00:13:04.669Z,95890.75
2022-12-25T00:14:07.540Z,95885.69
2022-12-25T00:15:10.400Z,95883.75
2022-12-25T00:16:17.664Z,95888.41
2022-12-25T00:17:19.575Z,95886.47
2022-12-25T00:18:22.991Z,95889.94
2022-12-25T00:19:25.049Z,95889.94
2022-12-25T00:20:27.869Z,95896.59
2022-12-25T00:21:30.005Z,95898.13
2022-12-25T00:22:33.188Z,95900.09
2022-12-25T00:23:35.610Z,95896.59
2022-12-25T00:24:38.552Z,95895.81
2022-12-25T00:25:40.776Z,95899.31
2022-12-25T00:26:43.642Z,95896.97
2022-12-25T00:27:47.939Z,95892.31
2022-12-25T00:28:52.878Z,95899.31
2022-12-25T00:29:54.772Z,95897.78
2022-12-25T00:30:57.688Z,95896.97
2022-12-25T00:31:59.694Z,95900.88
2022-12-25T00:33:02.613Z,95891.16
2022-12-25T00:34:04.490Z,95898.56
2022-12-25T00:35:08.190Z,95895.84
2022-12-25T00:36:11.022Z,95896.25
2022-12-25T00:37:13.895Z,95890.81
2022-12-25T00:38:15.812Z,95896.25
2022-12-25T00:39:18.798Z,95895.47
2022-12-25T00:40:20.688Z,95906.34
2022-12-25T00:41:38.984Z,95902.84
2022-12-25T00:42:41.833Z,95899.38
2022-12-25T00:43:45.119Z,95904.03
2022-12-25T00:44:48.749Z,95894.31
2022-12-25T00:45:55.613Z,95900.94
2022-12-25T00:46:58.823Z,95906.38
2022-12-25T00:48:00.793Z,95899.38
2022-12-25T00:49:03.942Z,95907.97
2022-12-25T00:50:07.261Z,95907.16
2022-12-25T00:51:12.591Z,95900.19
2022-12-25T00:52:14.470Z,95898.63
2022-12-25T00:53:17.500Z,95899.03
2022-12-25T00:54:19.628Z,95901.00
2022-12-25T00:55:22.537Z,95903.72
2022-12-25T00:56:25.973Z,95902.16
2022-12-25T00:57:28.926Z,95902.16
2022-12-25T00:58:32.657Z,95905.66
2022-12-25T00:59:36.901Z,95908.78
2022-12-25T01:00:39.346Z,95896.31
2022-12-25T01:01:42.505Z,95907.22
2022-12-25T01:02:44.675Z,95902.53
2022-12-25T01:03:47.561Z,95906.06
2022-12-25T01:04:50.331Z,95902.53
2022-12-25T01:05:57.685Z,95905.25
2022-12-25T01:06:59.510Z,95902.53
2022-12-25T01:08:02.362Z,95902.53
2022-12-25T01:09:23.360Z,95908.00
2022-12-25T01:10:25.321Z,95908.00
2022-12-25T01:11:27.965Z,95901.78
2022-12-25T01:12:31.938Z,95912.66
2022-12-25T01:13:36.175Z,95908.00
2022-12-25T01:14:40.416Z,95906.44
2022-12-25T01:15:42.342Z,95902.19
2022-12-25T01:16:45.389Z,95906.44
2022-12-25T01:17:47.644Z,95899.47
2022-12-25T01:18:50.717Z,95899.47
2022-12-25T01:19:52.820Z,95902.97
2022-12-25T01:20:55.647Z,95894.03
2022-12-25T01:21:57.539Z,95895.94
2022-12-25T01:23:00.482Z,95893.22
2022-12-25T01:24:02.725Z,95903.34
2022-12-25T01:25:06.495Z,95899.84
2022-12-25T01:26:10.576Z,95901.41
2022-12-25T01:27:13.689Z,95908.78
2022-12-25T01:28:16.448Z,95906.06
2022-12-25T01:29:19.455Z,95914.25
2022-12-25T01:30:23.730Z,95908.78
2022-12-25T01:31:25.656Z,95900.63
2022-12-25T01:32:28.631Z,95901.00
2022-12-25T01:33:30.949Z,95901.00
2022-12-25T01:34:33.992Z,95904.53
2022-12-25T01:35:39.222Z,95901.44
2022-12-25T01:36:42.148Z,95908.41
2022-12-25T01:37:44.144Z,95904.16
2022-12-25T01:38:47.877Z,95908.41
2022-12-25T01:39:49.741Z,95903.38
2022-12-25T01:40:52.670Z,95909.59
2022-12-25T01:41:55.095Z,95912.31
2022-12-25T01:42:57.994Z,95907.66
2022-12-25T01:44:03.461Z,95911.13
2022-12-25T01:45:36.417Z,95910.38
2022-12-25T01:46:38.675Z,95910.38
2022-12-25T01:47:41.686Z,95915.06
2022-12-25T01:48:43.567Z,95919.72
2022-12-25T01:49:50.855Z,95921.66
2022-12-25T01:50:55.651Z,95908.03
2022-12-25T01:52:02.628Z,95908.03
2022-12-25T01:53:05.899Z,95904.94
2022-12-25T01:54:13.521Z,95901.06
2022-12-25T01:55:16.012Z,95895.59
2022-12-25T01:56:18.887Z,95888.97
2022-12-25T01:57:24.133Z,95890.16
2022-12-25T01:58:27.055Z,95890.94
2022-12-25T01:59:29.955Z,95884.72
2022-12-25T02:00:33.083Z,95890.94
2022-12-25T02:01:36.487Z,95880.81
2022-12-25T02:02:40.990Z,95880.81
2022-12-25T02:03:43.001Z,95880.03
2022-12-25T02:04:51.659Z,95879.66
2022-12-25T02:05:55.886Z,95880.81
2022-12-25T02:06:58.347Z,95882.38
2022-12-25T02:08:05.212Z,95888.97
2022-12-25T02:09:07.361Z,95882.38
2022-12-25T02:10:11.235Z,95890.53
2022-12-25T02:11:33.248Z,95893.28
2022-12-25T02:12:37.012Z,95890.53
2022-12-25T02:13:38.881Z,95889.34
2022-12-25T02:14:41.981Z,95887.81
2022-12-25T02:15:55.035Z,95889.34
2022-12-25T02:17:08.314Z,95883.91
2022-12-25T02:18:17.944Z,95887.81
2022-12-25T02:19:37.926Z,95883.91
2022-12-25T02:21:00.616Z,95881.19
2022-12-25T02:22:15.619Z,95885.88
2022-12-25T02:23:51.828Z,95885.88
2022-12-25T02:25:05.063Z,95889.34
2022-12-25T02:26:17.402Z,95888.59
2022-12-25T02:27:31.393Z,95883.16
2022-12-25T02:28:45.782Z,95895.56
2022-12-25T02:29:54.341Z,95889.34
2022-12-25T02:31:04.394Z,95886.63
2022-12-25T02:32:15.747Z,95894.81
2022-12-25T02:33:45.104Z,95895.56
2022-12-25T02:34:53.853Z,95894.81
2022-12-25T02:35:57.891Z,95895.56
2022-12-25T02:37:07.648Z,95887.41
2022-12-25T02:38:16.783Z,95893.28
2022-12-25T02:39:42.243Z,95889.34
2022-12-25T02:40:50.712Z,95894.03
2022-12-25T02:41:56.194Z,95893.28
2022-12-25T02:43:20.565Z,95893.28
2022-12-25T02:44:44.208Z,95899.88
2022-12-25T02:46:09.713Z,95890.94
2022-12-25T02:47:30.436Z,95897.16
2022-12-25T02:48:55.936Z,95894.84
2022-12-25T02:50:23.273Z,95885.88
2022-12-25T02:51:47.616Z,95891.31
2022-12-25T02:53:10.284Z,95889.78
2022-12-25T02:54:34.613Z,95890.56
2022-12-25T02:55:59.563Z,95884.34
2022-12-25T02:57:23.982Z,95891.75
2022-12-25T02:58:46.434Z,95888.25
2022-12-25T03:00:10.863Z,95893.69
2022-12-25T03:01:35.123Z,95890.19
2022-12-25T03:02:58.308Z,95893.69
2022-12-25T03:04:21.702Z,95888.25
2022-12-25T03:05:44.939Z,95888.25
2022-12-25T03:07:04.676Z,95883.97
2022-12-25T03:08:10.815Z,95887.06
2022-12-25T03:09:36.320Z,95882.00
2022-12-25T03:11:00.413Z,95883.97
2022-12-25T03:12:12.183Z,95886.28
2022-12-25T03:13:19.069Z,95890.19
2022-12-25T03:14:40.648Z,95893.69
2022-12-25T03:16:02.906Z,95889.41
2022-12-25T03:17:06.186Z,95883.97
2022-12-25T03:18:12.216Z,95883.97
2022-12-25T03:19:29.189Z,95880.09
2022-12-25T03:20:50.491Z,95880.09
2022-12-25T03:22:13.285Z,95880.47
2022-12-25T03:23:38.307Z,95869.97
2022-12-25T03:24:59.505Z,95878.13
2022-12-25T03:26:19.622Z,95878.13
2022-12-25T03:27:22.510Z,95869.19
2022-12-25T03:28:24.591Z,95869.19
2022-12-25T03:29:48.451Z,95869.97
2022-12-25T03:31:14.975Z,95865.72
2022-12-25T03:32:29.451Z,95869.97
2022-12-25T03:34:08.014Z,95868.44
2022-12-25T03:35:24.579Z,95872.69
2022-12-25T03:36:35.838Z,95874.66
2022-12-25T03:38:13.104Z,95876.97
2022-12-25T03:39:41.601Z,95869.97
2022-12-25T03:41:19.418Z,95859.09
2022-12-25T03:42:47.407Z,95868.44
2022-12-25T03:44:14.807Z,95867.66
2022-12-25T03:45:43.941Z,95857.53
2022-12-25T03:47:12.406Z,95854.81
2022-12-25T03:48:34.270Z,95863.75
2022-12-25T03:50:03.926Z,95855.19
2022-12-25T03:51:31.190Z,95852.47
2022-12-25T03:52:54.079Z,95856.75
2022-12-25T03:54:20.038Z,95851.28
2022-12-25T03:55:41.897Z,95852.06
2022-12-25T03:57:03.179Z,95846.63
2022-12-25T03:58:23.486Z,95846.63
2022-12-25T03:59:43.824Z,95841.16
2022-12-25T04:01:13.078Z,95834.97
2022-12-25T04:02:34.761Z,95841.59
2022-12-25T04:03:55.343Z,95847.44
2022-12-25T04:05:15.727Z,95845.47
2022-12-25T04:06:36.172Z,95854.41
2022-12-25T04:07:56.483Z,95845.47
2022-12-25T04:09:31.527Z,95845.09
2022-12-25T04:10:51.958Z,95856.75
2022-12-25T04:12:12.324Z,95852.06
2022-12-25T04:13:33.873Z,95847.41
2022-12-25T04:14:55.799Z,95844.69
2022-12-25T04:16:16.265Z,95843.50
2022-12-25T04:17:38.110Z,95844.69
2022-12-25T04:18:58.465Z,95847.41
2022-12-25T04:20:19.084Z,95834.97
2022-12-25T04:21:39.308Z,95836.53
2022-12-25T04:22:59.725Z,95842.34
2022-12-25T04:24:20.060Z,95849.75
2022-12-25T04:25:52.127Z,95857.13
2022-12-25T04:27:12.459Z,95859.09
2022-12-25T04:28:32.841Z,95859.09
2022-12-25T04:29:53.301Z,95853.63
2022-12-25T04:31:14.092Z,95854.81
2022-12-25T04:32:34.465Z,95855.59
2022-12-25T04:33:56.295Z,95857.53
2022-12-25T04:35:16.591Z,95859.09
2022-12-25T04:36:19.583Z,95858.31
2022-12-25T04:37:21.555Z,95853.63
2022-12-25T04:38:24.600Z,95852.88
2022-12-25T04:39:26.567Z,95847.44
2022-12-25T04:40:29.586Z,95844.31
2022-12-25T04:41:31.524Z,95837.31
2022-12-25T04:42:34.524Z,95843.94
2022-12-25T04:43:36.568Z,95850.91
2022-12-25T04:44:39.546Z,95840.44
2022-12-25T04:45:41.569Z,95841.22
2022-12-25T04:46:44.598Z,95839.66
2022-12-25T04:47:46.657Z,95842.38
2022-12-25T04:48:51.014Z,95843.56
2022-12-25T04:49:52.997Z,95838.13
2022-12-25T04:50:55.092Z,95849.78
2022-12-25T04:51:58.052Z,95839.28
2022-12-25T04:52:59.989Z,95851.72
2022-12-25T04:54:03.105Z,95854.44
2022-12-25T04:55:06.830Z,95848.22
2022-12-25T04:56:09.774Z,95853.69
2022-12-25T04:57:11.755Z,95855.59
2022-12-25T04:58:14.738Z,95863.78
2022-12-25T04:59:16.677Z,95861.84
2022-12-25T05:00:20.199Z,95862.22
2022-12-25T05:01:22.468Z,95861.03
2022-12-25T05:02:25.677Z,95859.13
2022-12-25T05:03:28.193Z,95847.44
2022-12-25T05:04:32.639Z,95847.44
2022-12-25T05:05:34.593Z,95834.25
2022-12-25T05:06:37.544Z,95837.72
2022-12-25T05:07:39.450Z,95836.19
2022-12-25T05:08:42.467Z,95843.19
2022-12-25T05:09:44.486Z,95850.56
2022-12-25T05:10:48.638Z,95848.63
2022-12-25T05:11:50.516Z,95845.13
2022-12-25T05:12:53.481Z,95841.22
2022-12-25T05:13:55.419Z,95840.47
2022-12-25T05:14:58.511Z,95854.06
2022-12-25T05:16:00.554Z,95847.44
2022-12-25T05:17:04.527Z,95852.13
2022-12-25T05:18:06.543Z,95849.38
2022-12-25T05:19:09.536Z,95848.63
2022-12-25T05:20:13.045Z,95845.91
2022-12-25T05:21:16.259Z,95848.63
2022-12-25T05:22:18.141Z,95845.13
2022-12-25T05:23:21.418Z,95845.13
2022-12-25T05:24:26.497Z,95845.13
2022-12-25T05:25:29.435Z,95845.91
2022-12-25T05:26:31.641Z,95847.84
2022-12-25T05:27:34.581Z,95847.09
2022-12-25T05:28:36.768Z,95855.25
2022-12-25T05:29:39.650Z,95854.06
2022-12-25T05:30:41.592Z,95856.03
2022-12-25T05:31:44.560Z,95855.25
2022-12-25T05:32:47.627Z,95857.97
2022-12-25T05:33:51.277Z,95856.03
2022-12-25T05:34:53.121Z,95855.25
2022-12-25T05:35:57.417Z,95848.25
2022-12-25T05:36:59.293Z,95844.38
2022-12-25T05:38:02.113Z,95848.25
2022-12-25T05:39:04.118Z,95850.97
2022-12-25T05:40:08.554Z,95844.00
2022-12-25T05:41:10.477Z,95837.75
2022-12-25T05:42:13.320Z,95841.25
2022-12-25T05:43:15.188Z,95835.03
2022-12-25T05:44:18.099Z,95835.81
2022-12-25T05:45:20.031Z,95838.53
2022-12-25T05:46:23.635Z,95835.81
2022-12-25T05:47:25.576Z,95841.25
2022-12-25T05:48:28.460Z,95845.91
2022-12-25T05:49:30.341Z,95840.47
2022-12-25T05:50:33.222Z,95840.47
2022-12-25T05:51:42.446Z,95842.44
2022-12-25T05:52:45.396Z,95836.97
2022-12-25T05:53:47.317Z,95839.69
2022-12-25T05:54:50.324Z,95845.16
2022-12-25T05:55:52.219Z,95832.72
2022-12-25T05:56:55.028Z,95840.47
2022-12-25T05:57:57.727Z,95823.38
2022-12-25T05:59:00.728Z,95833.50
2022-12-25T06:00:02.707Z,95819.88
2022-12-25T06:01:17.687Z,95830.00
2022-12-25T06:02:19.675Z,95821.84
2022-12-25T06:03:22.730Z,95828.03
2022-12-25T06:04:24.747Z,95830.00
2022-12-25T06:05:27.790Z,95828.03
2022-12-25T06:06:29.683Z,95827.28
2022-12-25T06:07:34.032Z,95840.13
2022-12-25T06:08:36.253Z,95835.44
2022-12-25T06:09:39.177Z,95833.88
2022-12-25T06:10:41.045Z,95836.59
2022-12-25T06:11:43.944Z,95836.59
2022-12-25T06:12:45.809Z,95832.72
2022-12-25T06:13:51.516Z,95832.72
2022-12-25T06:14:53.455Z,95831.16
2022-12-25T06:15:56.331Z,95831.16
2022-12-25T06:16:58.293Z,95832.72
2022-12-25T06:18:01.535Z,95837.41
2022-12-25T06:19:03.450Z,95835.44
2022-12-25T06:20:07.781Z,95836.59
2022-12-25T06:21:12.328Z,95842.03
2022-12-25T06:22:15.414Z,95839.31
2022-12-25T06:23:18.864Z,95836.59
2022-12-25T06:24:22.465Z,95826.50
2022-12-25T06:25:24.383Z,95830.00
2022-12-25T06:26:27.539Z,95837.41
2022-12-25T06:27:29.547Z,95829.63
2022-12-25T06:28:32.747Z,95828.44
2022-12-25T06:29:34.710Z,95827.28
2022-12-25T06:30:37.583Z,95824.94
2022-12-25T06:31:39.517Z,95831.16
2022-12-25T06:32:42.480Z,95831.94
2022-12-25T06:33:44.626Z,95829.22
2022-12-25T06:34:47.502Z,95830.00
2022-12-25T06:35:49.366Z,95821.47
2022-12-25T06:36:52.287Z,95822.22
2022-12-25T06:37:54.226Z,95825.72
2022-12-25T06:39:01.144Z,95826.13
2022-12-25T06:40:03.253Z,95823.41
2022-12-25T06:41:08.240Z,95828.06
2022-12-25T06:42:10.128Z,95826.91
2022-12-25T06:43:13.070Z,95822.63
2022-12-25T06:44:15.093Z,95824.19
2022-12-25T06:45:18.126Z,95833.09
2022-12-25T06:46:20.906Z,95825.72
2022-12-25T06:47:23.869Z,95821.84
2022-12-25T06:48:25.755Z,95825.34
2022-12-25T06:49:28.659Z,95828.84
2022-12-25T06:50:30.514Z,95823.41
2022-12-25T06:51:34.838Z,95826.13
2022-12-25T06:52:36.749Z,95826.91
2022-12-25T06:53:40.741Z,95824.94
2022-12-25T06:54:44.562Z,95834.28
2022-12-25T06:55:47.415Z,95826.91
2022-12-25T06:56:49.808Z,95824.19
2022-12-25T06:57:52.755Z,95823.41
2022-12-25T06:58:56.617Z,95819.88
2022-12-25T06:59:59.507Z,95817.16
2022-12-25T07:01:07.135Z,95817.97
2022-12-25T07:02:19.989Z,95817.16
2022-12-25T07:03:22.555Z,95816.00
2022-12-25T07:04:32.046Z,95813.28
2022-12-25T07:05:33.977Z,95817.16
2022-12-25T07:06:36.861Z,95817.16
2022-12-25T07:07:38.784Z,95828.84
2022-12-25T07:08:42.035Z,95817.16
2022-12-25T07:09:45.241Z,95822.63
2022-12-25T07:10:48.105Z,95819.13
2022-12-25T07:11:49.935Z,95824.19
2022-12-25T07:12:52.762Z,95816.00
2022-12-25T07:13:54.724Z,95810.97
2022-12-25T07:14:57.535Z,95817.97
2022-12-25T07:16:00.714Z,95817.97
2022-12-25T07:17:03.596Z,95816.00
2022-12-25T07:18:05.555Z,95824.19
2022-12-25T07:19:08.527Z,95818.72
2022-12-25T07:20:10.667Z,95822.22
2022-12-25T07:21:15.781Z,95821.47
2022-12-25T07:22:18.203Z,95816.78
2022-12-25T07:23:21.075Z,95814.81
2022-12-25T07:24:23.823Z,95820.69
2022-12-25T07:25:32.102Z,95818.72
2022-12-25T07:26:37.296Z,95817.53
2022-12-25T07:27:41.183Z,95827.28
2022-12-25T07:28:43.441Z,95817.53
2022-12-25T07:29:46.387Z,95828.03
2022-12-25T07:30:48.463Z,95828.81
2022-12-25T07:31:51.371Z,95830.00
2022-12-25T07:32:53.268Z,95828.81
2022-12-25T07:33:56.155Z,95821.84
2022-12-25T07:34:58.049Z,95828.81
2022-12-25T07:36:01.463Z,95825.72
2022-12-25T07:37:04.805Z,95831.16
2022-12-25T07:38:06.722Z,95832.72
2022-12-25T07:39:10.963Z,95821.06
2022-12-25T07:40:13.321Z,95819.13
2022-12-25T07:41:18.017Z,95827.28
2022-12-25T07:42:25.037Z,95821.84
2022-12-25T07:43:30.620Z,95823.38
2022-12-25T07:44:32.715Z,95819.13
2022-12-25T07:45:35.677Z,95813.25
2022-12-25T07:46:37.597Z,95815.97
2022-12-25T07:47:40.467Z,95813.25
2022-12-25T07:48:42.427Z,95824.94
2022-12-25T07:49:45.274Z,95821.03
2022-12-25T07:50:47.221Z,95824.94
2022-12-25T07:51:50.065Z,95824.94
2022-12-25T07:52:51.896Z,95823.75
2022-12-25T07:53:55.320Z,95815.59
2022-12-25T07:54:57.246Z,95828.03
2022-12-25T07:56:01.753Z,95818.69
2022-12-25T07:57:05.080Z,95824.91
2022-12-25T07:58:07.941Z,95814.78
2022-12-25T07:59:09.925Z,95817.88
2022-12-25T08:00:13.956Z,95820.59
2022-12-25T08:01:19.480Z,95812.81
2022-12-25T08:02:28.320Z,95827.97
2022-12-25T08:03:30.750Z,95814.75
2022-12-25T08:04:33.837Z,95819.38
2022-12-25T08:05:35.725Z,95817.03
2022-12-25T08:06:39.516Z,95806.16
2022-12-25T08:07:41.499Z,95810.78
2022-12-25T08:08:44.476Z,95813.09
2022-12-25T08:09:46.311Z,95809.97
2022-12-25T08:10:49.333Z,95804.91
2022-12-25T08:11:51.316Z,95804.50
2022-12-25T08:12:57.906Z,95818.88
2022-12-25T08:14:00.130Z,95811.84
2022-12-25T08:15:02.955Z,95812.22
2022-12-25T08:16:07.977Z,95813.78
2022-12-25T08:17:10.930Z,95814.56
2022-12-25T08:18:13.997Z,95815.72
2022-12-25T08:19:15.991Z,95809.09
2022-12-25T08:20:19.024Z,95809.09
2022-12-25T08:21:21.015Z,95807.91
2022-12-25T08:22:23.840Z,95818.00
2022-12-25T08:23:25.668Z,95811.00
2022-12-25T08:24:28.631Z,95811.41
2022-12-25T08:25:30.760Z,95807.53
2022-12-25T08:26:33.898Z,95814.88
2022-12-25T08:27:35.855Z,95806.72
2022-12-25T08:28:40.695Z,95812.97
2022-12-25T08:29:43.716Z,95812.16
2022-12-25T08:30:46.638Z,95811.41
2022-12-25T08:31:49.463Z,95806.72
2022-12-25T08:32:51.433Z,95805.94
2022-12-25T08:33:56.729Z,95800.50
2022-12-25T08:34:58.662Z,95814.13
2022-12-25T08:36:03.332Z,95811.41
2022-12-25T08:37:05.308Z,95808.31
2022-12-25T08:38:08.190Z,95809.88
2022-12-25T08:39:10.485Z,95807.16
2022-12-25T08:40:14.317Z,95815.31
2022-12-25T08:41:18.447Z,95815.31
2022-12-25T08:42:20.433Z,95815.31
2022-12-25T08:43:23.316Z,95808.31
2022-12-25T08:44:27.584Z,95809.09
2022-12-25T08:45:34.691Z,95807.16
2022-12-25T08:46:39.800Z,95803.66
2022-12-25T08:47:41.798Z,95804.41
2022-12-25T08:48:45.995Z,95795.06
2022-12-25T08:49:47.919Z,95802.06
2022-12-25T08:50:52.156Z,95797.00
2022-12-25T08:51:54.220Z,95800.50
2022-12-25T08:52:57.104Z,95798.53
2022-12-25T08:54:00.869Z,95800.06
2022-12-25T08:55:05.258Z,95801.25
2022-12-25T08:56:08.089Z,95799.66
2022-12-25T08:57:10.967Z,95795.00
2022-12-25T08:58:14.541Z,95804.72
2022-12-25T08:59:17.495Z,95802.00
2022-12-25T09:00:21.307Z,95800.03
2022-12-25T09:01:24.215Z,95807.03
2022-12-25T09:02:26.531Z,95795.75
2022-12-25T09:03:32.120Z,95799.22
2022-12-25T09:04:34.162Z,95791.84
2022-12-25T09:05:37.735Z,95786.41
2022-12-25T09:06:39.694Z,95779.78
2022-12-25T09:07:42.651Z,95789.47
2022-12-25T09:08:49.248Z,95787.53
2022-12-25T09:09:52.815Z,95791.03
2022-12-25T09:10:54.712Z,95796.50
2022-12-25T09:11:57.600Z,95798.03
2022-12-25T09:12:59.591Z,95794.13
2022-12-25T09:14:02.647Z,95803.84
2022-12-25T09:15:05.612Z,95800.34
2022-12-25T09:16:12.367Z,95800.34
2022-12-25T09:17:14.236Z,95791.78
2022-12-25T09:18:17.158Z,95791.78
2022-12-25T09:19:19.097Z,95791.00
2022-12-25T09:20:22.040Z,95792.56
2022-12-25T09:21:24.242Z,95798.75
2022-12-25T09:22:27.251Z,95793.31
2022-12-25T09:23:29.482Z,95790.59
2022-12-25T09:24:32.457Z,95794.88
2022-12-25T09:25:34.448Z,95794.88
2022-12-25T09:26:38.312Z,95795.66
2022-12-25T09:27:40.287Z,95797.19
2022-12-25T09:28:50.282Z,95789.44
2022-12-25T09:29:53.583Z,95792.50
2022-12-25T09:30:56.740Z,95790.97
2022-12-25T09:32:00.095Z,95791.34
2022-12-25T09:33:03.757Z,95784.31
2022-12-25T09:34:07.026Z,95793.28
2022-12-25T09:35:10.622Z,95793.28
2022-12-25T09:36:12.560Z,95790.16
2022-12-25T09:37:15.478Z,95790.16
2022-12-25T09:38:17.322Z,95785.50
2022-12-25T09:39:20.289Z,95782.34
2022-12-25T09:40:24.104Z,95779.63
2022-12-25T09:41:31.826Z,95778.47
2022-12-25T09:42:34.561Z,95777.28
2022-12-25T09:43:41.666Z,95775.31
2022-12-25T09:44:48.446Z,95774.53
2022-12-25T09:45:51.396Z,95773.38
2022-12-25T09:46:55.847Z,95765.22
2022-12-25T09:48:00.301Z,95770.22
2022-12-25T09:49:06.400Z,95773.72
2022-12-25T09:50:14.670Z,95762.81
2022-12-25T09:51:18.495Z,95758.16
2022-12-25T09:52:26.251Z,95757.38
2022-12-25T09:53:35.859Z,95761.25
2022-12-25T09:54:47.235Z,95768.66
2022-12-25T09:55:57.195Z,95767.47
2022-12-25T09:57:00.212Z,95770.97
2022-12-25T09:58:10.812Z,95778.38
2022-12-25T09:59:25.609Z,95780.28
2022-12-25T10:00:33.288Z,95783.00
2022-12-25T10:01:45.960Z,95780.66
2022-12-25T10:03:05.844Z,95777.53
2022-12-25T10:04:26.854Z,95776.34
2022-12-25T10:06:08.164Z,95771.25
2022-12-25T10:07:16.729Z,95766.56
2022-12-25T10:08:30.951Z,95768.16
2022-12-25T10:09:49.397Z,95768.16
2022-12-25T10:10:58.522Z,95758.03
2022-12-25T10:12:12.716Z,95765.81
2022-12-25T10:13:31.227Z,95768.88
2022-12-25T10:14:43.474Z,95764.22
2022-12-25T10:15:55.500Z,95766.53
2022-12-25T10:17:18.410Z,95759.91
2022-12-25T10:18:44.923Z,95768.09
2022-12-25T10:19:55.060Z,95760.28
2022-12-25T10:20:59.875Z,95763.00
2022-12-25T10:22:10.845Z,95767.25
2022-12-25T10:23:16.151Z,95756.34
2022-12-25T10:24:29.660Z,95763.38
2022-12-25T10:25:32.791Z,95755.97
2022-12-25T10:26:36.390Z,95762.19
2022-12-25T10:27:41.202Z,95748.53
2022-12-25T10:28:46.092Z,95744.63
2022-12-25T10:29:52.870Z,95740.75
2022-12-25T10:30:59.255Z,95739.97
2022-12-25T10:32:01.492Z,95732.94
2022-12-25T10:33:04.606Z,95737.94
2022-12-25T10:34:12.230Z,95728.59
2022-12-25T10:35:16.865Z,95732.47
2022-12-25T10:36:21.288Z,95728.16
2022-12-25T10:37:26.721Z,95731.25
2022-12-25T10:38:29.033Z,95727.69
2022-12-25T10:39:31.996Z,95727.28
2022-12-25T10:40:44.218Z,95731.53
2022-12-25T10:42:06.554Z,95728.41
2022-12-25T10:43:13.489Z,95725.69
2022-12-25T10:44:20.257Z,95726.47
2022-12-25T10:45:23.171Z,95723.72
2022-12-25T10:46:27.541Z,95726.47
2022-12-25T10:47:32.908Z,95722.56
2022-12-25T10:48:34.817Z,95717.09
2022-12-25T10:49:40.594Z,95717.47
2022-12-25T10:50:43.096Z,95717.84
2022-12-25T10:51:46.100Z,95703.00
2022-12-25T10:52:55.438Z,95704.53
2022-12-25T10:53:58.602Z,95710.00
2022-12-25T10:55:11.320Z,95707.25
2022-12-25T10:56:18.806Z,95715.44
2022-12-25T10:57:22.304Z,95704.53
2022-12-25T10:58:25.442Z,95713.50
2022-12-25T10:59:30.202Z,95710.34
2022-12-25T11:00:32.891Z,95713.09
2022-12-25T11:01:35.979Z,95716.19
2022-12-25T11:02:40.778Z,95713.44
2022-12-25T11:03:48.456Z,95714.22
2022-12-25T11:04:58.102Z,95711.50
2022-12-25T11:06:03.177Z,95701.38
2022-12-25T11:07:07.528Z,95709.91
2022-12-25T11:08:21.502Z,95709.91
2022-12-25T11:09:23.712Z,95711.44
2022-12-25T11:10:29.678Z,95712.22
2022-12-25T11:11:31.888Z,95706.38
2022-12-25T11:12:38.021Z,95704.41
2022-12-25T11:13:49.748Z,95700.91
2022-12-25T11:14:54.261Z,95706.72
2022-12-25T11:16:06.974Z,95696.59
2022-12-25T11:17:09.759Z,95698.91
2022-12-25T11:18:20.610Z,95706.66
2022-12-25T11:19:28.811Z,95705.91
2022-12-25T11:20:33.350Z,95694.16
2022-12-25T11:21:37.358Z,95700.41
2022-12-25T11:22:47.934Z,95693.34
2022-12-25T11:23:55.949Z,95695.22
2022-12-25T11:24:58.812Z,95694.75
2022-12-25T11:26:03.437Z,95691.94
2022-12-25T11:27:07.498Z,95684.47
2022-12-25T11:28:13.145Z,95690.63
2022-12-25T11:29:25.528Z,95682.81
2022-12-25T11:30:29.008Z,95675.34
2022-12-25T11:31:40.374Z,95677.22
2022-12-25T11:32:47.627Z,95684.25
2022-12-25T11:33:56.087Z,95672.53
2022-12-25T11:34:59.081Z,95681.16
2022-12-25T11:36:09.996Z,95678.00
2022-12-25T11:37:17.498Z,95675.28
2022-12-25T11:38:20.748Z,95674.91
2022-12-25T11:39:25.745Z,95674.16
2022-12-25T11:40:35.628Z,95672.63
2022-12-25T11:41:38.742Z,95669.13
2022-12-25T11:42:46.246Z,95676.50
2022-12-25T11:43:54.687Z,95667.91
2022-12-25T11:45:03.355Z,95664.78
2022-12-25T11:46:12.016Z,95656.16
2022-12-25T11:47:20.275Z,95656.97
2022-12-25T11:48:26.927Z,95661.56
2022-12-25T11:49:31.357Z,95662.34
2022-12-25T11:50:36.650Z,95659.59
2022-12-25T11:51:45.062Z,95657.25
2022-12-25T11:52:48.253Z,95663.81
2022-12-25T11:53:54.371Z,95662.28
2022-12-25T11:55:02.558Z,95656.03
2022-12-25T11:56:10.783Z,95663.81
2022-12-25T11:57:13.101Z,95654.88
2022-12-25T11:58:21.518Z,95653.66
2022-12-25T11:59:35.567Z,95657.53
2022-12-25T12:00:38.695Z,95648.16
2022-12-25T12:01:45.951Z,95650.81
2022-12-25T12:03:03.200Z,95645.31
2022-12-25T12:04:14.088Z,95642.56
2022-12-25T12:05:22.149Z,95633.97
2022-12-25T12:06:30.157Z,95641.38
2022-12-25T12:07:36.072Z,95648.03
2022-12-25T12:08:39.697Z,95644.94
2022-12-25T12:09:50.778Z,95639.47
2022-12-25T12:11:16.769Z,95634.44
2022-12-25T12:12:24.859Z,95638.72
2022-12-25T12:13:37.609Z,95639.47
2022-12-25T12:14:48.975Z,95637.09
2022-12-25T12:15:51.649Z,95631.66
2022-12-25T12:16:54.726Z,95625.41
2022-12-25T12:18:08.008Z,95637.09
2022-12-25T12:19:24.934Z,95629.69
2022-12-25T12:20:30.034Z,95640.97
2022-12-25T12:21:33.076Z,95631.59
2022-12-25T12:22:36.598Z,95642.53
2022-12-25T12:23:51.071Z,95627.66
2022-12-25T12:25:01.477Z,95632.28
2022-12-25T12:26:04.607Z,95633.06
2022-12-25T12:27:19.732Z,95619.41
2022-12-25T12:28:24.547Z,95614.38
2022-12-25T12:29:31.048Z,95611.63
2022-12-25T12:30:36.311Z,95606.59
2022-12-25T12:31:40.518Z,95606.94
2022-12-25T12:32:46.117Z,95600.72
2022-12-25T12:33:52.557Z,95604.22
2022-12-25T12:34:57.038Z,95601.06
2022-12-25T12:36:01.255Z,95592.44
2022-12-25T12:37:08.570Z,95595.53
2022-12-25T12:38:16.959Z,95595.53
2022-12-25T12:39:26.087Z,95600.53
2022-12-25T12:40:33.905Z,95597.69
2022-12-25T12:41:47.256Z,95596.53
2022-12-25T12:42:50.644Z,95602.00
2022-12-25T12:43:58.295Z,95595.75
2022-12-25T12:45:09.100Z,95596.94
2022-12-25T12:46:21.555Z,95599.31
2022-12-25T12:47:29.864Z,95599.31
2022-12-25T12:48:40.649Z,95587.28
2022-12-25T12:49:42.575Z,95593.09
2022-12-25T12:50:45.596Z,95596.59
2022-12-25T12:51:47.595Z,95588.38
2022-12-25T12:52:50.733Z,95593.84
2022-12-25T12:54:10.248Z,95598.13
2022-12-25T12:55:13.230Z,95591.47
2022-12-25T12:56:18.952Z,95593.44
2022-12-25T12:57:26.964Z,95589.50
2022-12-25T12:58:33.749Z,95586.78
2022-12-25T12:59:40.693Z,95586.78
2022-12-25T13:00:51.241Z,95587.53
2022-12-25T13:02:08.839Z,95590.28
2022-12-25T13:03:34.429Z,95582.06
2022-12-25T13:05:02.986Z,95589.09
2022-12-25T13:06:12.036Z,95593.72
2022-12-25T13:07:32.224Z,95585.09
2022-12-25T13:08:48.076Z,95584.66